• Join FlightAware (Why Join?)
  • Login
  • US Flag 
05:34AM EDT


 

Airport Tracker/Info


-or-


 

Live Flight TrackerFlight Track Log ✈ SWA920 ✈ 21-Apr-2013 ✈ KBNA - KCHS

Flight Track Log - Related Links

Times and Time Zones

All times are in EDT time to prevent confusion due to time zone crossing. See the SWA920 flight status page for this flight to view local times or setup timezone preferences in your user account.

Time Position Orientation Groundspeed Altitude Reporting Facility
EDT Latitude Longitude Course Direction KTS MPH feet Rate Location/Type
05:52PM 36.1500 -86.6333 39° Northeast 169 194 2,300  Level Nashville TRACON
05:53PM 36.1833 -86.5667 58° Northeast 232 267 5,700 3,300 Climbing Nashville TRACON
05:54PM 36.1667 -86.4833 104° East 285 328 9,000 3,120 Climbing Nashville TRACON
05:55PM 36.1436 -86.4092 111° Southeast 294 338 11,100 2,460 Climbing Memphis Center
05:56PM 36.1167 -86.2872 105° East 337 388 13,200 2,280 Climbing Memphis Center
05:57PM 36.0897 -86.1678 106° East 382 440 15,700 2,580 Climbing Memphis Center
05:59PM 36.0572 -85.8675 98° East 442 509 21,300 2,580 Climbing Atlanta Center
06:00PM 36.0431 -85.6822 95° East 447 514 23,800 2,220 Climbing Atlanta Center
06:01PM 36.0222 -85.5200 99° East 462 532 25,800 1,800 Climbing Atlanta Center
06:02PM 35.9425 -85.3931 128° Southeast 459 528 27,500 1,860 Climbing Atlanta Center
06:03PM 35.8603 -85.2686 129° Southeast 459 528 29,600 1,920 Climbing Atlanta Center
06:04PM 35.7842 -85.1547 129° Southeast 466 536 31,400 1,200 Climbing Atlanta Center
06:05PM 35.7017 -85.0308 129° Southeast 471 542 32,000 300 Climbing Atlanta Center
06:06PM 35.6172 -84.9047 129° Southeast 477 549 32,000 900 Level Atlanta Center
06:07PM 35.5344 -84.7814 129° Southeast 477 549 33,800 1,500 Climbing Atlanta Center
06:08PM 35.4517 -84.6583 130° Southeast 477 549 35,000 600 Climbing Atlanta Center
06:09PM 35.3667 -84.5381 131° Southeast 472 543 35,000  Level Atlanta Center
06:10PM 35.2858 -84.4178 129° Southeast 472 543 35,000  Level Atlanta Center
06:11PM 35.1986 -84.2931 131° Southeast 472 543 35,000 840 Level Atlanta Center
06:12PM 35.1172 -84.1733 130° Southeast 467 537 36,700 1,080 Climbing Atlanta Center
06:13PM 35.0339 -84.0514 130° Southeast 467 537 37,200 480 Climbing Atlanta Center
06:14PM 34.9461 -83.9247 130° Southeast 473 544 37,700 780 Climbing Atlanta Center
06:15PM 34.8542 -83.7806 128° Southeast 487 560 38,800 600 Climbing Atlanta Center
06:16PM 34.7661 -83.6569 131° Southeast 494 568 39,000 -360 Climbing Atlanta Center
06:17PM 34.6864 -83.5411 130° Southeast 494 568 38,100 -1,020 Descending Atlanta Center
06:18PM 34.5897 -83.4003 130° Southeast 489 563 37,000 -1,020 Descending Atlanta Center
06:19PM 34.5014 -83.2800 132° Southeast 489 563 36,100 -960 Descending Atlanta Center
06:20PM 34.4150 -83.1575 131° Southeast 475 547 35,100 -900 Descending Atlanta Center
06:21PM 34.3369 -83.0500 131° Southeast 480 552 34,300 -900 Descending Atlanta Center
06:22PM 34.2547 -82.9281 129° Southeast 474 545 33,300 -960 Descending Atlanta Center
06:23PM 34.1700 -82.8061 130° Southeast 480 552 32,400 -960 Descending Atlanta Center
06:24PM 34.0811 -82.6844 131° Southeast 480 552 31,400 -960 Descending Atlanta Center
06:25PM 33.9942 -82.5656 131° Southeast 480 552 30,500 -960 Descending Atlanta Center
06:26PM 33.9006 -82.4319 130° Southeast 480 552 29,500 -1,020 Descending Atlanta Center
06:27PM 33.7658 -82.2431 131° Southeast 458 527 27,900 -960 Descending Jacksonville Center
06:28PM 33.6900 -82.1164 126° Southeast 468 539 27,000 -480 Descending Jacksonville Center
06:29PM 33.6408 -81.9544 110° East 482 555 27,000  Level Jacksonville Center
06:30PM 33.5917 -81.7981 111° Southeast 490 564 27,000 -480 Level Jacksonville Center
06:31PM 33.5358 -81.6167 110° East 506 582 26,100 -960 Descending Jacksonville Center
06:32PM 33.4861 -81.4656 111° Southeast 506 582 25,100 -960 Descending Jacksonville Center
06:33PM 33.4428 -81.3269 111° Southeast 499 574 24,200 -1,680 Descending Jacksonville Center
06:34PM 33.3928 -81.1736 111° Southeast 494 568 21,800 -2,700 Descending Jacksonville Center
06:35PM 33.3469 -81.0278 111° Southeast 489 563 18,900 -3,000 Descending Jacksonville Center
06:36PM 33.3031 -80.8919 111° Southeast 461 531 15,800 -3,000 Descending Jacksonville Center
06:37PM 33.2614 -80.7661 112° Southeast 426 490 13,000 -2,640 Descending Jacksonville Center
06:38PM 33.2239 -80.6503 111° Southeast 393 452 10,600 -1,560 Descending Jacksonville Center
06:39PM 33.1906 -80.5469 111° Southeast 363 418 9,900 -900 Descending Jacksonville Center
06:40PM 33.1575 -80.4561 113° Southeast 324 373 8,900 -1,200 Descending Jacksonville Center
06:41PM 33.1022 -80.3981 139° Southeast 276 318 7,600 -1,500 Descending Jacksonville Center
06:42PM 33.0428 -80.3453 143° Southeast 270 311 6,000 -1,500 Descending Jacksonville Center
06:43PM 32.9833 -80.2947 144° Southeast 270 311 4,700 -1,200 Descending Jacksonville Center
06:44PM 32.9239 -80.2494 147° Southeast 263 303 3,700 -900 Descending Jacksonville Center
06:45PM 32.8667 -80.2092 149° Southeast 253 291 2,900 -840 Descending Jacksonville Center
06:46PM 32.8242 -80.1733 145° Southeast 223 257 2,100 -840 Descending Jacksonville Center
06:48PM 32.8888 -80.0580 79° East  Level Estimated
06:55PM 32.8833 -80.0333 79° East  Level FlightAware Approximate
06:56PM 32.8986 -80.0405 79° East  Level Estimated
06:57PM 32.8986 -80.0405 79° East  Level Estimated
06:58PM 32.8986 -80.0405 79° East  Level Estimated
06:59PM 32.8986 -80.0405 79° East  Level Estimated